createdAt,value
2017-12-11T00:00:40.423Z,82.60
2017-12-11T00:03:06.655Z,82.60
2017-12-11T00:05:32.940Z,83.00
2017-12-11T00:07:59.102Z,82.80
2017-12-11T00:10:25.299Z,82.90
2017-12-11T00:12:51.506Z,82.50
2017-12-11T00:15:18.507Z,83.00
2017-12-11T00:17:44.723Z,82.90
2017-12-11T00:20:10.931Z,82.80
2017-12-11T00:22:46.187Z,82.90
2017-12-11T00:25:12.471Z,82.50
2017-12-11T00:27:39.443Z,82.60
2017-12-11T00:30:05.650Z,82.60
2017-12-11T00:32:32.584Z,83.10
2017-12-11T00:34:59.507Z,82.20
2017-12-11T00:37:25.718Z,82.70
2017-12-11T00:39:51.953Z,82.90
2017-12-11T00:42:18.148Z,82.90
2017-12-11T00:44:44.399Z,83.30
2017-12-11T00:47:10.638Z,83.20
2017-12-11T00:49:36.817Z,83.50
2017-12-11T00:52:03.760Z,83.00
2017-12-11T00:54:30.722Z,82.90
2017-12-11T00:56:56.920Z,82.90
2017-12-11T00:59:23.911Z,82.80
2017-12-11T01:01:50.143Z,82.80
2017-12-11T01:04:16.318Z,83.20
2017-12-11T01:06:43.239Z,82.70
2017-12-11T01:09:09.510Z,82.70
2017-12-11T01:11:35.711Z,82.90
2017-12-11T01:14:02.663Z,82.90
2017-12-11T01:16:29.591Z,83.00
2017-12-11T01:18:56.607Z,82.60
2017-12-11T01:21:22.850Z,82.60
2017-12-11T01:23:49.124Z,82.80
2017-12-11T01:26:16.060Z,82.60
2017-12-11T01:28:42.226Z,82.60
2017-12-11T01:31:08.503Z,82.30
2017-12-11T01:33:35.382Z,82.70
2017-12-11T01:36:02.328Z,82.80
2017-12-11T01:38:28.587Z,82.80
2017-12-11T01:40:54.835Z,82.60
2017-12-11T01:43:21.087Z,82.60
2017-12-11T01:45:47.263Z,83.10
2017-12-11T01:48:13.473Z,83.10
2017-12-11T01:50:39.731Z,82.30
2017-12-11T01:53:05.922Z,82.80
2017-12-11T01:55:32.854Z,82.60
2017-12-11T01:57:59.798Z,83.00
2017-12-11T02:00:26.754Z,82.70
2017-12-11T02:02:53.723Z,82.50
2017-12-11T02:05:19.927Z,82.50
2017-12-11T02:07:46.882Z,82.90
2017-12-11T02:10:13.103Z,83.10
2017-12-11T02:12:40.055Z,83.10
2017-12-11T02:15:06.306Z,83.10
2017-12-11T02:17:32.495Z,83.50
2017-12-11T02:19:59.489Z,83.10
2017-12-11T02:22:25.782Z,83.10
2017-12-11T02:24:51.983Z,82.80
2017-12-11T02:27:18.219Z,82.70
2017-12-11T02:29:45.204Z,82.80
2017-12-11T02:32:11.436Z,82.80
2017-12-11T02:34:37.637Z,83.40
2017-12-11T02:37:04.597Z,83.40
2017-12-11T02:39:30.781Z,83.40
2017-12-11T02:41:57.035Z,83.60
2017-12-11T02:44:23.984Z,83.70
2017-12-11T02:46:50.981Z,84.10
2017-12-11T02:49:17.214Z,84.10
2017-12-11T02:51:43.522Z,84.00
2017-12-11T02:54:09.770Z,83.80
2017-12-11T02:56:36.003Z,84.10
2017-12-11T02:59:02.190Z,83.90
2017-12-11T03:01:28.384Z,83.60
2017-12-11T03:03:54.547Z,84.20
2017-12-11T03:06:20.767Z,83.70
2017-12-11T03:08:46.999Z,84.10
2017-12-11T03:11:13.216Z,84.30
2017-12-11T03:13:39.422Z,84.50
2017-12-11T03:16:05.601Z,84.20
2017-12-11T03:18:31.783Z,84.70
2017-12-11T03:20:57.986Z,84.20
2017-12-11T03:23:24.974Z,84.00
2017-12-11T03:25:51.159Z,84.00
2017-12-11T03:28:17.330Z,83.80
2017-12-11T03:30:44.284Z,83.80
2017-12-11T03:33:10.536Z,83.80
2017-12-11T03:35:36.736Z,83.90
2017-12-11T03:38:02.937Z,83.70
2017-12-11T03:40:29.867Z,83.80
2017-12-11T03:42:56.807Z,84.80
2017-12-11T03:45:22.985Z,84.80
2017-12-11T03:47:49.221Z,85.30
2017-12-11T03:50:15.444Z,85.20
2017-12-11T03:52:41.645Z,85.20
2017-12-11T03:55:08.562Z,84.60
2017-12-11T03:57:34.775Z,84.60
2017-12-11T04:00:01.021Z,84.50
2017-12-11T04:02:27.999Z,84.60
2017-12-11T04:04:54.926Z,84.40
2017-12-11T04:07:21.875Z,84.20
2017-12-11T04:09:48.848Z,84.10
2017-12-11T04:12:15.048Z,84.10
2017-12-11T04:14:41.255Z,83.80
2017-12-11T04:17:07.494Z,83.80
2017-12-11T04:19:33.701Z,84.20
2017-12-11T04:21:59.851Z,83.70
2017-12-11T04:24:26.797Z,84.20
2017-12-11T04:26:52.959Z,84.20
2017-12-11T04:29:19.191Z,84.80
2017-12-11T04:31:45.331Z,84.10
2017-12-11T04:34:11.487Z,83.50
2017-12-11T04:36:37.656Z,83.00
2017-12-11T04:39:04.520Z,83.00
2017-12-11T04:41:30.739Z,83.00
2017-12-11T04:43:56.907Z,82.60
2017-12-11T04:46:23.098Z,83.20
2017-12-11T04:48:49.294Z,83.50
2017-12-11T04:51:16.185Z,83.90
2017-12-11T04:53:42.413Z,83.90
2017-12-11T04:56:08.588Z,83.70
2017-12-11T04:58:34.754Z,83.70
2017-12-11T05:01:00.988Z,83.70
2017-12-11T05:03:27.168Z,84.20
2017-12-11T05:05:54.121Z,84.80
2017-12-11T05:08:21.039Z,85.60
2017-12-11T05:10:47.294Z,84.80
2017-12-11T05:13:14.191Z,85.20
2017-12-11T05:15:40.364Z,85.10
2017-12-11T05:18:06.593Z,85.70
2017-12-11T05:20:33.517Z,85.80
2017-12-11T05:23:00.514Z,85.30
2017-12-11T05:25:26.757Z,85.40
2017-12-11T05:27:53.018Z,86.20
2017-12-11T05:30:19.616Z,86.50
2017-12-11T05:32:45.800Z,86.60
2017-12-11T05:35:12.046Z,87.40
2017-12-11T05:37:38.989Z,86.30
2017-12-11T05:40:05.915Z,85.90
2017-12-11T05:42:32.168Z,85.90
2017-12-11T05:44:58.447Z,86.60
2017-12-11T05:47:24.665Z,87.10
2017-12-11T05:49:50.859Z,86.20
2017-12-11T05:52:17.066Z,86.40
2017-12-11T05:54:43.244Z,86.70
2017-12-11T05:57:09.429Z,86.80
2017-12-11T05:59:36.439Z,86.00
2017-12-11T06:02:02.646Z,85.90
2017-12-11T06:04:28.850Z,86.30
2017-12-11T06:06:55.044Z,86.30
2017-12-11T06:09:22.022Z,86.20
2017-12-11T06:11:48.169Z,86.20
2017-12-11T06:14:14.327Z,86.00
2017-12-11T06:16:40.500Z,86.00
2017-12-11T06:19:06.693Z,85.70
2017-12-11T06:21:32.885Z,85.60
2017-12-11T06:23:59.079Z,86.60
2017-12-11T06:26:25.271Z,87.20
2017-12-11T06:28:51.487Z,86.90
2017-12-11T06:31:17.646Z,86.70
2017-12-11T06:33:44.608Z,87.70
2017-12-11T06:36:10.789Z,87.70
2017-12-11T06:38:37.067Z,87.40
2017-12-11T06:41:03.659Z,87.50
2017-12-11T06:43:29.875Z,87.60
2017-12-11T06:45:56.041Z,87.30
2017-12-11T06:48:23.002Z,86.90
2017-12-11T06:50:49.143Z,86.90
2017-12-11T06:53:15.311Z,87.60
2017-12-11T06:55:41.479Z,87.30
2017-12-11T06:58:08.442Z,87.00
2017-12-11T07:00:34.674Z,87.00
2017-12-11T07:03:00.814Z,87.90
2017-12-11T07:05:27.049Z,87.60
2017-12-11T07:07:53.228Z,87.50
2017-12-11T07:10:20.171Z,87.70
2017-12-11T07:12:47.159Z,87.60
2017-12-11T07:15:13.378Z,87.60
2017-12-11T07:17:39.595Z,87.70
2017-12-11T07:20:06.276Z,88.10
2017-12-11T07:22:32.509Z,88.10
2017-12-11T07:24:58.751Z,87.90
2017-12-11T07:27:24.971Z,88.30
2017-12-11T07:29:51.885Z,88.30
2017-12-11T07:32:18.079Z,88.20
2017-12-11T07:34:44.298Z,88.60
2017-12-11T07:37:11.251Z,89.20
2017-12-11T07:39:38.163Z,89.10
2017-12-11T07:42:04.347Z,89.10
2017-12-11T07:44:30.506Z,89.40
2017-12-11T07:46:56.777Z,90.00
2017-12-11T07:49:23.023Z,90.20
2017-12-11T07:51:49.224Z,90.30
2017-12-11T07:54:16.135Z,90.40
2017-12-11T07:56:42.334Z,90.40
2017-12-11T07:59:08.520Z,90.40
2017-12-11T08:01:35.492Z,90.50
2017-12-11T08:04:01.670Z,90.50
2017-12-11T08:06:27.870Z,90.70
2017-12-11T08:08:54.292Z,90.80
2017-12-11T08:11:20.535Z,90.70
2017-12-11T08:13:46.703Z,90.80
2017-12-11T08:16:12.855Z,90.80
2017-12-11T08:18:39.783Z,90.80
2017-12-11T08:21:06.754Z,90.70
2017-12-11T08:23:32.904Z,90.70
2017-12-11T08:25:59.126Z,90.70
2017-12-11T08:28:25.260Z,90.40
2017-12-11T08:30:51.525Z,90.50
2017-12-11T08:33:17.716Z,90.60
2017-12-11T08:35:43.891Z,91.00
2017-12-11T08:38:10.859Z,90.60
2017-12-11T08:40:37.003Z,90.60
2017-12-11T08:43:03.219Z,90.60
2017-12-11T08:45:29.999Z,90.70
2017-12-11T08:47:56.325Z,90.80
2017-12-11T08:50:22.465Z,90.70
2017-12-11T08:52:48.626Z,90.80
2017-12-11T08:55:15.605Z,90.80
2017-12-11T08:57:41.841Z,90.80
2017-12-11T09:00:08.093Z,90.80
2017-12-11T09:02:34.308Z,90.80
2017-12-11T09:05:00.757Z,90.70
2017-12-11T09:07:26.938Z,90.70
2017-12-11T09:09:53.202Z,91.00
2017-12-11T09:12:19.533Z,90.90
2017-12-11T09:14:45.782Z,91.00
2017-12-11T09:17:12.022Z,90.90
2017-12-11T09:19:38.987Z,91.10
2017-12-11T09:22:05.178Z,91.10
2017-12-11T09:24:32.119Z,91.20
2017-12-11T09:26:58.291Z,91.20
2017-12-11T09:29:24.424Z,91.10
2017-12-11T09:31:50.579Z,91.10
2017-12-11T09:34:16.768Z,91.10
2017-12-11T09:36:43.730Z,91.20
2017-12-11T09:39:09.943Z,91.20
2017-12-11T09:41:36.172Z,91.10
2017-12-11T09:44:02.357Z,91.10
2017-12-11T09:46:29.287Z,91.20
2017-12-11T09:48:55.546Z,91.20
2017-12-11T09:51:21.660Z,91.20
2017-12-11T09:53:48.609Z,91.00
2017-12-11T09:56:15.553Z,91.00
2017-12-11T09:58:42.447Z,90.90
2017-12-11T10:01:08.625Z,91.00
2017-12-11T10:03:34.888Z,90.90
2017-12-11T10:06:01.089Z,91.00
2017-12-11T10:08:27.317Z,91.00
2017-12-11T10:10:53.544Z,91.10
2017-12-11T10:13:19.761Z,91.10
2017-12-11T10:15:45.948Z,91.30
2017-12-11T10:18:12.171Z,91.20
2017-12-11T10:20:38.336Z,91.10
2017-12-11T10:23:04.521Z,91.10
2017-12-11T10:25:30.799Z,91.20
2017-12-11T10:27:57.774Z,91.20
2017-12-11T10:30:24.749Z,91.20
2017-12-11T10:32:50.915Z,91.20
2017-12-11T10:35:17.093Z,91.20
2017-12-11T10:37:43.271Z,91.30
2017-12-11T10:40:09.452Z,91.30
2017-12-11T10:42:35.678Z,91.30
2017-12-11T10:45:02.647Z,91.20
2017-12-11T10:47:28.861Z,91.20
2017-12-11T10:49:55.109Z,91.10
2017-12-11T10:52:21.352Z,91.40
2017-12-11T10:54:47.562Z,91.70
2017-12-11T10:57:13.756Z,91.70
2017-12-11T10:59:39.928Z,91.40
2017-12-11T11:02:06.138Z,91.80
2017-12-11T11:04:32.371Z,92.00
2017-12-11T11:06:58.587Z,91.80
2017-12-11T11:09:24.794Z,91.90
2017-12-11T11:11:51.737Z,91.40
2017-12-11T11:14:17.951Z,91.40
2017-12-11T11:16:44.886Z,91.70
2017-12-11T11:19:11.056Z,91.70
2017-12-11T11:21:37.279Z,91.50
2017-12-11T11:24:03.467Z,91.60
2017-12-11T11:26:29.658Z,91.50
2017-12-11T11:28:55.894Z,91.40
2017-12-11T11:31:22.072Z,91.30
2017-12-11T11:33:49.034Z,91.70
2017-12-11T11:36:15.200Z,91.70
2017-12-11T11:38:41.401Z,91.60
2017-12-11T11:41:07.574Z,91.60
2017-12-11T11:43:34.522Z,91.40
2017-12-11T11:46:00.709Z,91.40
2017-12-11T11:48:26.887Z,91.50
2017-12-11T11:50:53.859Z,91.90
2017-12-11T11:53:20.047Z,91.60
2017-12-11T11:55:46.296Z,91.70
2017-12-11T11:58:13.270Z,91.40
2017-12-11T12:00:39.539Z,91.40
2017-12-11T12:03:05.694Z,91.00
2017-12-11T12:05:32.638Z,91.10
2017-12-11T12:07:59.572Z,91.30
2017-12-11T12:10:25.858Z,91.30
2017-12-11T12:12:52.056Z,91.20
2017-12-11T12:15:18.310Z,91.20
2017-12-11T12:17:44.609Z,91.20
2017-12-11T12:20:10.828Z,91.30
2017-12-11T12:22:37.767Z,91.30
2017-12-11T12:25:04.710Z,91.40
2017-12-11T12:27:31.717Z,91.30
2017-12-11T12:29:57.956Z,91.30
2017-12-11T12:32:24.147Z,91.10
2017-12-11T12:34:50.312Z,91.30
2017-12-11T12:37:16.477Z,91.20
2017-12-11T12:39:43.402Z,91.50
2017-12-11T12:42:09.545Z,91.50
2017-12-11T12:44:36.446Z,92.00
2017-12-11T12:47:04.393Z,91.80
2017-12-11T12:49:30.640Z,91.90
2017-12-11T12:51:56.811Z,91.80
2017-12-11T12:54:23.735Z,91.70
2017-12-11T12:56:50.698Z,91.70
2017-12-11T12:59:17.601Z,91.40
2017-12-11T13:01:43.790Z,91.40
2017-12-11T13:04:10.703Z,91.40
2017-12-11T13:06:37.766Z,91.50
2017-12-11T13:09:04.748Z,91.60
2017-12-11T13:11:31.004Z,91.50
2017-12-11T13:13:57.138Z,91.40
2017-12-11T13:16:23.244Z,91.30
2017-12-11T13:18:49.399Z,91.30
2017-12-11T13:21:15.539Z,91.40
2017-12-11T13:23:41.727Z,91.30
2017-12-11T13:26:07.914Z,91.20
2017-12-11T13:28:34.819Z,91.30
2017-12-11T13:31:01.017Z,91.30
2017-12-11T13:33:27.246Z,91.20
2017-12-11T13:35:53.443Z,91.20
2017-12-11T13:38:20.322Z,91.10
2017-12-11T13:40:46.593Z,91.10
2017-12-11T13:43:13.511Z,91.20
2017-12-11T13:45:39.702Z,91.10
2017-12-11T13:48:05.951Z,90.80
2017-12-11T13:50:32.155Z,91.10
2017-12-11T13:52:58.301Z,91.20
2017-12-11T13:55:24.566Z,91.30
2017-12-11T13:57:51.569Z,91.10
2017-12-11T14:00:17.799Z,91.10
2017-12-11T14:02:44.032Z,91.10
2017-12-11T14:05:10.235Z,91.00
2017-12-11T14:07:36.404Z,90.70
2017-12-11T14:10:02.634Z,90.80
2017-12-11T14:12:28.764Z,90.70
2017-12-11T14:14:54.898Z,90.80
2017-12-11T14:17:21.110Z,90.90
2017-12-11T14:19:47.317Z,91.30
2017-12-11T14:22:13.514Z,91.20
2017-12-11T14:24:40.509Z,91.00
2017-12-11T14:27:06.742Z,91.00
2017-12-11T14:29:33.035Z,91.30
2017-12-11T14:31:59.239Z,91.30
2017-12-11T14:34:25.459Z,91.10
2017-12-11T14:36:52.415Z,91.10
2017-12-11T14:39:19.401Z,90.70
2017-12-11T14:41:45.639Z,90.70
2017-12-11T14:44:11.823Z,90.50
2017-12-11T14:46:38.795Z,90.60
2017-12-11T14:49:05.005Z,90.60
2017-12-11T14:51:31.164Z,91.20
2017-12-11T14:53:57.406Z,91.60
2017-12-11T14:56:24.391Z,90.90
2017-12-11T14:58:51.362Z,90.50
2017-12-11T15:01:17.605Z,90.50
2017-12-11T15:03:43.837Z,90.40
2017-12-11T15:06:10.007Z,90.70
2017-12-11T15:08:36.187Z,90.20
2017-12-11T15:11:02.394Z,90.60
2017-12-11T15:13:28.544Z,90.50
2017-12-11T15:15:54.843Z,90.90
2017-12-11T15:18:21.022Z,90.80
2017-12-11T15:20:47.158Z,91.20
2017-12-11T15:23:13.369Z,91.50
2017-12-11T15:25:39.548Z,91.30
2017-12-11T15:28:06.516Z,91.30
2017-12-11T15:30:32.784Z,91.30
2017-12-11T15:32:58.984Z,91.20
2017-12-11T15:35:25.156Z,91.00
2017-12-11T15:37:51.449Z,91.50
2017-12-11T15:40:17.698Z,91.50
2017-12-11T15:42:43.860Z,91.40
2017-12-11T15:45:10.836Z,91.20
2017-12-11T15:47:37.042Z,91.20
2017-12-11T15:50:03.256Z,91.10
2017-12-11T15:52:30.244Z,90.60
2017-12-11T15:54:56.477Z,90.60
2017-12-11T15:57:22.706Z,90.70
2017-12-11T15:59:49.000Z,90.70
2017-12-11T16:02:15.248Z,91.00
2017-12-11T16:04:41.519Z,91.20
2017-12-11T16:07:07.701Z,91.40
2017-12-11T16:09:33.917Z,91.40
2017-12-11T16:12:00.876Z,91.10
2017-12-11T16:14:27.116Z,91.10
2017-12-11T16:16:53.351Z,91.10
2017-12-11T16:19:19.570Z,91.20
2017-12-11T16:21:45.743Z,91.00
2017-12-11T16:24:11.962Z,91.00
2017-12-11T16:26:38.170Z,90.80
2017-12-11T16:29:04.386Z,90.70
2017-12-11T16:31:30.586Z,90.70
2017-12-11T16:33:57.568Z,90.90
2017-12-11T16:39:36.971Z,90.70
2017-12-11T16:42:03.153Z,90.80
2017-12-11T16:44:29.363Z,90.90
2017-12-11T16:46:55.576Z,90.80
2017-12-11T16:49:21.877Z,90.90
2017-12-11T16:51:48.586Z,90.60
2017-12-11T16:54:14.847Z,90.80
2017-12-11T16:56:41.823Z,91.30
2017-12-11T16:59:08.055Z,90.90
2017-12-11T17:01:34.272Z,90.90
2017-12-11T17:04:01.213Z,90.90
2017-12-11T17:06:28.254Z,91.00
2017-12-11T17:08:55.232Z,91.20
2017-12-11T17:11:21.395Z,91.50
2017-12-11T17:13:47.594Z,91.30
2017-12-11T17:16:13.754Z,91.40
2017-12-11T17:18:39.993Z,91.50
2017-12-11T17:21:06.222Z,91.30
2017-12-11T17:23:32.340Z,91.20
2017-12-11T17:25:58.499Z,90.80
2017-12-11T17:28:25.464Z,91.20
2017-12-11T17:30:51.690Z,91.20
2017-12-11T17:33:17.924Z,91.70
2017-12-11T17:35:44.166Z,91.40
2017-12-11T17:38:10.385Z,91.40
2017-12-11T17:40:36.535Z,91.50
2017-12-11T17:43:02.762Z,91.20
2017-12-11T17:45:28.937Z,91.30
2017-12-11T17:47:55.831Z,91.30
2017-12-11T17:50:22.041Z,91.30
2017-12-11T17:52:48.303Z,91.10
2017-12-11T17:55:15.323Z,91.10
2017-12-11T17:57:41.536Z,91.10
2017-12-11T18:00:07.732Z,91.20
2017-12-11T18:02:34.782Z,91.00
2017-12-11T18:05:01.719Z,90.90
2017-12-11T18:07:27.957Z,90.90
2017-12-11T18:09:54.875Z,90.50
2017-12-11T18:12:21.070Z,90.40
2017-12-11T18:14:47.261Z,90.90
2017-12-11T18:17:14.180Z,91.30
2017-12-11T18:19:44.212Z,91.00
2017-12-11T18:22:10.441Z,91.00
2017-12-11T18:24:37.366Z,90.90
2017-12-11T18:27:03.658Z,90.90
2017-12-11T18:29:29.881Z,91.00
2017-12-11T18:31:56.157Z,90.70
2017-12-11T18:34:22.427Z,90.90
2017-12-11T18:36:48.639Z,90.70
2017-12-11T18:39:15.610Z,90.40
2017-12-11T18:41:41.783Z,90.40
2017-12-11T18:44:07.982Z,90.60
2017-12-11T18:46:34.215Z,90.60
2017-12-11T18:49:00.428Z,90.50
2017-12-11T18:51:26.568Z,90.90
2017-12-11T18:53:52.758Z,90.70
2017-12-11T18:56:19.660Z,90.70
2017-12-11T18:58:45.868Z,90.70
2017-12-11T19:01:12.823Z,90.70
2017-12-11T19:03:39.027Z,90.60
2017-12-11T19:06:05.247Z,90.70
2017-12-11T19:08:31.475Z,90.70
2017-12-11T19:10:57.584Z,91.30
2017-12-11T19:13:24.532Z,90.90
2017-12-11T19:15:50.763Z,90.90
2017-12-11T19:18:17.017Z,90.70
2017-12-11T19:20:43.234Z,90.70
2017-12-11T19:23:09.435Z,90.50
2017-12-11T19:25:36.403Z,90.60
2017-12-11T19:28:02.563Z,90.60
2017-12-11T19:30:28.753Z,90.70
2017-12-11T19:32:54.969Z,90.80
2017-12-11T19:35:21.974Z,90.70
2017-12-11T19:37:48.211Z,90.70
2017-12-11T19:40:14.388Z,90.90
2017-12-11T19:42:40.675Z,90.80
2017-12-11T19:45:07.669Z,90.40
2017-12-11T19:47:33.867Z,90.40
2017-12-11T19:50:00.854Z,90.60
2017-12-11T19:52:27.091Z,90.60
2017-12-11T19:54:53.272Z,90.80
2017-12-11T19:57:20.238Z,90.40
2017-12-11T19:59:46.430Z,90.40
2017-12-11T20:02:12.620Z,90.50
2017-12-11T20:04:38.857Z,90.40
2017-12-11T20:07:05.081Z,90.40
2017-12-11T20:09:31.289Z,90.50
2017-12-11T20:11:57.471Z,90.80
2017-12-11T20:14:23.582Z,90.80
2017-12-11T20:16:50.698Z,90.80
2017-12-11T20:19:16.904Z,90.80
2017-12-11T20:21:43.060Z,90.70
2017-12-11T20:24:09.225Z,90.60
2017-12-11T20:29:44.542Z,90.70
2017-12-11T20:32:11.114Z,90.80
2017-12-11T20:34:37.308Z,90.60
2017-12-11T20:37:03.535Z,90.70
2017-12-11T20:39:29.732Z,90.70
2017-12-11T20:41:56.631Z,90.70
2017-12-11T20:44:22.847Z,90.70
2017-12-11T20:46:49.099Z,90.90
2017-12-11T20:49:15.344Z,91.00
2017-12-11T20:51:42.255Z,91.40
2017-12-11T20:54:08.450Z,91.30
2017-12-11T20:56:34.676Z,91.30
2017-12-11T20:59:00.827Z,91.20
2017-12-11T21:01:27.060Z,91.30
2017-12-11T21:03:53.220Z,91.40
2017-12-11T21:06:19.472Z,91.60
2017-12-11T21:08:46.469Z,91.60
2017-12-11T21:11:12.740Z,91.60
2017-12-11T21:13:39.687Z,91.50
2017-12-11T21:16:06.655Z,91.50
2017-12-11T21:18:32.926Z,91.40
2017-12-11T21:20:59.853Z,91.50
2017-12-11T21:23:26.158Z,91.50
2017-12-11T21:25:52.350Z,91.60
2017-12-11T21:28:18.637Z,91.90
2017-12-11T21:30:45.285Z,91.50
2017-12-11T21:33:11.509Z,91.70
2017-12-11T21:35:37.738Z,91.70
2017-12-11T21:38:03.975Z,91.80
2017-12-11T21:40:30.171Z,91.60
2017-12-11T21:42:56.440Z,91.70
2017-12-11T21:45:23.475Z,91.70
2017-12-11T21:47:49.633Z,91.60
2017-12-11T21:50:15.816Z,91.70
2017-12-11T21:52:42.061Z,91.60
2017-12-11T21:55:08.279Z,91.70
2017-12-11T21:57:34.482Z,92.00
2017-12-11T22:00:00.763Z,91.70
2017-12-11T22:02:26.973Z,91.80
2017-12-11T22:04:53.173Z,91.60
2017-12-11T22:07:19.377Z,91.80
2017-12-11T22:09:46.327Z,91.80
2017-12-11T22:12:12.588Z,91.80
2017-12-11T22:14:38.866Z,91.80
2017-12-11T22:17:05.835Z,91.90
2017-12-11T22:19:32.048Z,91.80
2017-12-11T22:21:59.232Z,92.10
2017-12-11T22:24:25.445Z,92.00
2017-12-11T22:26:51.590Z,91.60
2017-12-11T22:29:17.820Z,91.90
2017-12-11T22:31:44.004Z,91.90
2017-12-11T22:34:10.958Z,91.80
2017-12-11T22:36:37.178Z,91.80
2017-12-11T22:39:04.055Z,91.50
2017-12-11T22:41:30.259Z,91.50
2017-12-11T22:43:57.245Z,91.30
2017-12-11T22:46:23.455Z,91.30
2017-12-11T22:48:49.609Z,91.30
2017-12-11T22:51:15.894Z,91.60
2017-12-11T22:53:42.130Z,91.30
2017-12-11T22:56:08.340Z,91.30
2017-12-11T22:58:35.351Z,91.40
2017-12-11T23:01:01.542Z,91.40
2017-12-11T23:03:27.743Z,91.40
2017-12-11T23:05:54.673Z,91.30
2017-12-11T23:08:21.654Z,91.30
2017-12-11T23:10:47.906Z,91.30
2017-12-11T23:13:14.103Z,91.40
2017-12-11T23:15:40.279Z,91.20
2017-12-11T23:18:06.432Z,91.10
2017-12-11T23:20:32.632Z,91.10
2017-12-11T23:22:58.871Z,91.10
2017-12-11T23:25:25.814Z,90.90
2017-12-11T23:27:52.004Z,90.90
2017-12-11T23:30:18.203Z,91.00
2017-12-11T23:32:45.136Z,90.90
2017-12-11T23:35:12.082Z,90.90
2017-12-11T23:37:38.990Z,90.90
2017-12-11T23:40:05.159Z,90.90
2017-12-11T23:42:32.063Z,91.00
2017-12-11T23:44:58.302Z,91.00
2017-12-11T23:47:25.271Z,90.90
2017-12-11T23:49:52.189Z,90.90
2017-12-11T23:52:18.434Z,90.90
2017-12-11T23:54:45.356Z,91.40
2017-12-11T23:57:11.607Z,91.00
2017-12-11T23:59:37.808Z,90.90
